METAR Data
IDs: Format: Raw Decoded Include TAF

Data at: 1953 UTC 17 Nov 2019

KMKC 171932Z 33009KT 10SM OVC032 11/03 A2996 RMK AO2 T01060033
KMKC 171854Z 32010KT 10SM BKN027 OVC041 10/04 A2996 RMK AO2 SLP146 T01000039
KMKC 171754Z 32014KT 10SM OVC021 09/04 A2998 RMK AO2 SLP153 60000 T00940039 10100 20083 58001
KMKC 171654Z 32012KT 10SM OVC020 09/04 A2999 RMK AO2 SLP156 T00940039
KMKC 171626Z 31008G17KT 10SM BKN021 OVC090 09/04 A2999 RMK AO2 T00940039
KMKC 171554Z 31009KT 10SM FEW041 SCT070 BKN085 09/04 A2999 RMK AO2 RAB32E44 SLP154 P0000 T00890039
KMKC 171454Z 29008KT 10SM OVC090 08/03 A2999 RMK AO2 SLP154 T00830028 53005
KMKC 171354Z 29006KT 10SM BKN110 08/01 A2997 RMK AO2 SLP149 T00830006
KMKC 171254Z 24007KT 10SM FEW050 FEW085 OVC110 09/M01 A2996 RMK AO2 SLP146 T00891006
KMKC 171154Z 23008KT 10SM BKN100 09/M01 A2997 RMK AO2 SLP149 T00941011 10106 20083 56008
KMKC 171054Z 23009KT 10SM FEW120 10/M02 A2998 RMK AO2 SLP149 T01001017
KMKC 170954Z 20007KT 10SM CLR 09/M02 A2999 RMK AO2 SLP153 T00941017
KMKC 170854Z 19005KT 10SM FEW110 09/M03 A3000 RMK AO2 SLP156 T00891028 56018
KMKC 170754Z 21004KT 10SM CLR 08/M03 A3000 RMK AO2 SLP159 T00831028
KMKC 170654Z 19004KT 10SM CLR 08/M03 A3002 RMK AO2 SLP165 T00831033
KMKC 170554Z 18007KT 10SM CLR 09/M04 A3005 RMK AO2 SLP176 T00941039 10117 20089 401500022 58001
KMKC 170454Z 18006KT 10SM CLR 09/M04 A3006 RMK AO2 SLP178 T00891039
KMKC 170354Z 18003KT 10SM CLR 10/M04 A3006 RMK AO2 SLP181 T01001044
KMKC 170254Z 00000KT 10SM CLR 11/M05 A3005 RMK AO2 SLP178 T01061050 53006
KMKC 170154Z 14007KT 10SM CLR 11/M04 A3003 RMK AO2 SLP171 T01111044
KMKC 170054Z 14005KT 10SM CLR 12/M04 A3003 RMK AO2 SLP173 T01171044
KMKC 162354Z 14006KT 10SM CLR 11/M04 A3003 RMK AO2 SLP173 T01111039 10150 20111 57012
KMKC 162254Z 14007KT 10SM CLR 13/M04 A3005 RMK AO2 SLP175 T01281039
KMKC 162154Z 14011KT 10SM CLR 14/M03 A3006 RMK AO2 SLP180 T01391028
KMKC 162054Z 16010KT 10SM CLR 14/M03 A3007 RMK AO2 SLP183 T01441033 56031
KMKC 161954Z 15011KT 10SM CLR 14/M03 A3009 RMK AO2 SLP190 T01441033
KMKC 161854Z 15006KT 10SM CLR 14/M03 A3012 RMK AO2 SLP201 T01441033
KMKC 161754Z 14006KT 10SM CLR 13/M04 A3016 RMK AO2 SLP215 T01281044 10128 20022 58027
KMKC 161654Z 16009KT 10SM CLR 11/M05 A3020 RMK AO2 SLP228 T01061050
KMKC 161554Z 12005KT 10SM CLR 08/M06 A3022 RMK AO2 SLP236 T00831056
KMKC 161454Z 08003KT 10SM CLR 06/M07 A3024 RMK AO2 SLP244 T00561067 58004
KMKC 161354Z 11008KT 10SM CLR 03/M07 A3025 RMK AO2 SLP249 T00281067
KMKC 161254Z 12003KT 10SM CLR 02/M07 A3025 RMK AO2 SLP248 T00221072
KMKC 161154Z 11005KT 10SM CLR 03/M08 A3026 RMK AO2 SLP248 T00281078 10050 20022 58003
KMKC 161054Z 10004KT 10SM CLR 03/M08 A3026 RMK AO2 SLP249 T00331078
KMKC 160954Z 10003KT 10SM CLR 04/M08 A3026 RMK AO2 SLP249 T00391078
KMKC 160854Z 11005KT 10SM CLR 04/M08 A3027 RMK AO2 SLP249 T00441078 56010
KMKC 160754Z AUTO 10005KT 10SM CLR 04/M07 A3027 RMK AO2 SLP252 T00391072